Time;durP1;ratioP1;P1;durP2;ratioP2;P2;SDS_P1;SDS_P2;PMS_P1;PMS_P2;Temp;Humidity;BMP_temperature;BMP_pressure;BME280_temperature;BME280_humidity;BME280_pressure;Samples;Min_cycle;Max_cycle;Signal;HPM_P1;HPM_P2
2022/05/22 00:02:05;;;;;;;9.50;3.70;;;16.80;1.00;;;;;;5053340;28;20234;-79
2022/05/22 00:04:32;;;;;;;10.00;4.73;;;16.60;1.00;;;;;;5053465;28;20216;-78
2022/05/22 00:06:57;;;;;;;11.87;4.10;;;16.60;1.00;;;;;;5053520;28;20196;-78
2022/05/22 00:09:23;;;;;;;7.20;3.80;;;16.70;1.00;;;;;;5053943;28;20234;-78
2022/05/22 00:11:50;;;;;;;8.53;3.80;;;16.70;1.00;;;;;;5053667;28;20167;-77
2022/05/22 00:14:17;;;;;;;9.87;3.70;;;16.70;1.00;;;;;;5053491;28;20206;-78
2022/05/22 00:16:46;;;;;;;9.20;4.30;;;16.80;1.00;;;;;;5053562;28;20657;-79
2022/05/22 00:19:22;;;;;;;11.20;4.73;;;16.70;1.00;;;;;;5053185;28;20179;-79
2022/05/22 00:21:49;;;;;;;11.47;4.80;;;16.70;1.00;;;;;;5053288;28;20278;-77
2022/05/22 00:24:17;;;;;;;7.80;3.73;;;16.50;1.00;;;;;;5052880;28;20676;-82
2022/05/22 00:26:44;;;;;;;9.63;4.40;;;16.40;1.00;;;;;;5053824;28;20642;-84
2022/05/22 00:29:09;;;;;;;10.33;3.97;;;16.40;1.00;;;;;;5059758;28;20199;-82
2022/05/22 00:31:35;;;;;;;12.70;5.10;;;16.50;1.00;;;;;;5053496;28;20162;-80
2022/05/22 00:34:01;;;;;;;10.77;4.40;;;16.60;1.00;;;;;;5053837;28;20169;-82
2022/05/22 00:36:27;;;;;;;11.03;4.20;;;16.60;1.00;;;;;;5053252;28;20276;-84
2022/05/22 00:38:52;;;;;;;9.60;3.97;;;16.60;1.00;;;;;;5052954;28;20224;-83
2022/05/22 00:41:19;;;;;;;11.73;4.80;;;16.50;1.00;;;;;;5053341;28;20173;-78
2022/05/22 00:43:48;;;;;;;9.43;4.50;;;16.40;1.00;;;;;;5053436;28;20689;-78
2022/05/22 00:46:16;;;;;;;10.77;4.37;;;16.20;1.00;;;;;;5053621;28;20180;-83
2022/05/22 00:48:48;;;;;;;12.47;4.73;;;16.10;1.00;;;;;;5057750;28;20165;-79
2022/05/22 00:51:18;;;;;;;8.73;4.00;;;16.10;1.00;;;;;;5056707;28;20170;-77
2022/05/22 00:53:59;;;;;;;11.13;4.07;;;16.20;1.00;;;;;;5056386;28;20176;-77
2022/05/22 00:56:36;;;;;;;10.30;4.27;;;16.20;1.00;;;;;;5056598;28;20169;-80
2022/05/22 00:59:07;;;;;;;10.50;4.50;;;16.20;1.00;;;;;;5056548;28;20201;-78
2022/05/22 01:01:33;;;;;;;12.60;4.53;;;16.10;2.50;;;;;;5056597;28;20700;-77
2022/05/22 01:03:59;;;;;;;11.17;4.73;;;16.20;3.30;;;;;;5056431;28;20206;-79
2022/05/22 01:06:26;;;;;;;9.77;5.03;;;16.20;4.90;;;;;;5059921;28;20192;-81
2022/05/22 01:08:52;;;;;;;10.77;4.27;;;16.20;5.50;;;;;;5058083;28;20161;-82
2022/05/22 01:11:36;;;;;;;12.63;5.00;;;16.10;5.60;;;;;;5058027;28;20176;-78
2022/05/22 01:14:09;;;;;;;8.83;4.10;;;15.90;8.10;;;;;;5058985;28;20230;-78
2022/05/22 01:16:35;;;;;;;9.00;4.40;;;15.90;11.20;;;;;;5073664;28;20233;-77
2022/05/22 01:19:08;;;;;;;12.83;4.90;;;15.90;8.50;;;;;;5073274;28;20161;-77
2022/05/22 01:21:34;;;;;;;11.57;4.60;;;15.90;12.80;;;;;;5072903;28;20161;-77
2022/05/22 01:24:00;;;;;;;11.67;4.20;;;16.00;11.20;;;;;;5073232;28;20247;-78
2022/05/22 01:26:28;;;;;;;11.63;4.70;;;16.10;6.80;;;;;;5072729;28;20153;-76
2022/05/22 01:28:53;;;;;;;7.63;4.07;;;16.10;8.60;;;;;;5065607;28;20162;-78
2022/05/22 01:31:25;;;;;;;11.07;4.70;;;16.00;12.60;;;;;;5059250;28;20217;-78
2022/05/22 01:33:54;;;;;;;10.47;4.50;;;15.90;12.40;;;;;;5058901;28;20169;-78
2022/05/22 01:36:19;;;;;;;10.63;4.73;;;15.80;17.40;;;;;;5039118;28;20713;-79
2022/05/22 01:38:46;;;;;;;10.63;4.87;;;15.80;15.10;;;;;;5056516;28;20177;-77
2022/05/22 01:41:12;;;;;;;9.73;4.73;;;15.70;17.20;;;;;;5056205;28;20158;-78
2022/05/22 01:43:38;;;;;;;9.80;4.27;;;15.80;19.90;;;;;;5056088;28;20687;-80
2022/05/22 01:46:04;;;;;;;9.27;4.30;;;15.50;21.80;;;;;;5056046;28;20169;-80
2022/05/22 01:48:30;;;;;;;13.07;4.83;;;15.40;24.10;;;;;;5055783;28;20169;-78
2022/05/22 01:50:55;;;;;;;10.73;4.60;;;15.40;24.00;;;;;;5057625;28;20166;-80
2022/05/22 01:53:22;;;;;;;11.47;4.90;;;15.50;23.30;;;;;;5057688;28;20659;-84
2022/05/22 01:55:49;;;;;;;11.80;4.43;;;15.40;23.30;;;;;;5057385;28;20173;-77
2022/05/22 01:58:15;;;;;;;10.50;4.80;;;15.50;24.10;;;;;;5055996;28;20256;-78
2022/05/22 02:00:41;;;;;;;10.87;5.40;;;15.30;25.30;;;;;;5054235;28;20560;-80
2022/05/22 02:03:07;;;;;;;10.17;4.70;;;15.20;28.70;;;;;;5065236;28;20220;-75
2022/05/22 02:05:35;;;;;;;10.93;4.67;;;15.20;29.20;;;;;;5072863;28;20189;-78
2022/05/22 02:08:19;;;;;;;11.37;4.80;;;15.20;29.70;;;;;;5058017;28;20188;-78
2022/05/22 02:10:47;;;;;;;11.97;4.83;;;15.40;27.00;;;;;;5055933;28;20179;-78
2022/05/22 02:13:16;;;;;;;8.57;4.67;;;15.20;29.00;;;;;;5055412;28;20253;-76
2022/05/22 02:15:43;;;;;;;10.43;4.93;;;15.30;31.50;;;;;;5056160;28;20175;-77
2022/05/22 02:18:09;;;;;;;8.47;4.67;;;15.10;33.90;;;;;;5056008;28;20169;-83
2022/05/22 02:20:34;;;;;;;11.47;5.10;;;15.00;37.30;;;;;;5056120;28;20237;-76
2022/05/22 02:23:01;;;;;;;9.33;4.93;;;15.00;37.20;;;;;;5055983;28;20172;-82
2022/05/22 02:25:31;;;;;;;8.07;4.47;;;14.90;40.90;;;;;;5055729;28;20276;-79
2022/05/22 02:27:57;;;;;;;10.80;5.20;;;15.00;39.70;;;;;;5065546;28;20566;-79
2022/05/22 02:30:28;;;;;;;10.10;4.87;;;15.00;36.90;;;;;;5062743;28;20188;-76
2022/05/22 02:32:54;;;;;;;10.50;4.80;;;15.30;33.80;;;;;;5057346;28;20177;-77
2022/05/22 02:35:20;;;;;;;10.93;4.17;;;15.20;33.00;;;;;;5058598;28;20173;-76
2022/05/22 02:37:50;;;;;;;10.87;4.77;;;15.10;36.80;;;;;;5061716;28;20252;-80
2022/05/22 02:40:20;;;;;;;9.03;5.13;;;15.20;35.30;;;;;;5055637;28;20187;-78
2022/05/22 02:42:48;;;;;;;13.07;5.17;;;15.20;34.80;;;;;;5054796;28;20755;-77
2022/05/22 02:45:16;;;;;;;9.07;5.00;;;15.20;35.80;;;;;;5055775;28;20215;-77
2022/05/22 02:47:42;;;;;;;12.40;5.20;;;15.10;36.00;;;;;;5056114;28;20245;-79
2022/05/22 02:50:10;;;;;;;8.97;4.27;;;14.90;39.60;;;;;;5055078;28;20180;-79
2022/05/22 02:52:36;;;;;;;10.63;5.00;;;14.80;41.40;;;;;;5053164;28;20176;-78
2022/05/22 02:55:03;;;;;;;9.80;5.37;;;14.80;43.50;;;;;;5054409;28;20231;-84
2022/05/22 02:57:35;;;;;;;9.17;5.27;;;14.80;43.80;;;;;;5055109;28;20193;-84
2022/05/22 03:00:05;;;;;;;9.50;5.23;;;14.70;44.40;;;;;;5053279;28;20252;-77
2022/05/22 03:02:31;;;;;;;12.77;5.63;;;14.70;45.10;;;;;;5054370;28;20162;-79
2022/05/22 03:04:56;;;;;;;10.87;5.77;;;14.70;45.30;;;;;;5053583;28;20622;-81
2022/05/22 03:07:22;;;;;;;12.50;5.43;;;14.70;47.00;;;;;;5054297;28;20183;-80
2022/05/22 03:09:48;;;;;;;11.47;5.60;;;14.50;48.10;;;;;;5054304;28;20200;-82
2022/05/22 03:12:20;;;;;;;11.33;5.90;;;14.50;50.50;;;;;;5054853;28;20172;-83
2022/05/22 03:14:49;;;;;;;12.37;5.73;;;14.50;51.20;;;;;;5056408;28;20258;-84
2022/05/22 03:17:16;;;;;;;12.37;5.10;;;14.50;52.20;;;;;;5054870;28;20169;-84
2022/05/22 03:19:42;;;;;;;10.80;5.37;;;14.70;50.70;;;;;;5055275;28;20172;-77
2022/05/22 03:22:10;;;;;;;11.00;5.97;;;14.70;50.00;;;;;;5054115;28;20174;-78
2022/05/22 03:24:36;;;;;;;11.77;5.70;;;14.70;52.00;;;;;;5061032;28;20286;-75
2022/05/22 03:27:05;;;;;;;16.17;5.73;;;14.70;51.90;;;;;;5067407;28;20221;-76
2022/05/22 03:29:31;;;;;;;11.57;5.90;;;14.70;50.60;;;;;;5063139;28;20210;-77
2022/05/22 03:31:57;;;;;;;13.03;6.27;;;14.80;49.80;;;;;;5058859;28;20168;-76
2022/05/22 03:34:24;;;;;;;11.47;5.83;;;14.80;48.30;;;;;;5059806;28;20208;-78
2022/05/22 03:36:50;;;;;;;10.33;5.50;;;14.80;47.70;;;;;;5062950;28;20173;-79
2022/05/22 03:39:16;;;;;;;13.77;6.10;;;14.80;49.00;;;;;;5055347;28;20180;-77
2022/05/22 03:41:42;;;;;;;12.60;6.13;;;15.00;47.80;;;;;;5054182;28;20169;-79
2022/05/22 03:44:08;;;;;;;10.77;6.03;;;14.90;47.90;;;;;;5055847;28;20208;-77
2022/05/22 03:46:34;;;;;;;10.23;5.70;;;14.90;45.40;;;;;;5054793;28;20698;-81
2022/05/22 03:49:05;;;;;;;11.40;5.83;;;14.80;45.60;;;;;;5055637;28;20173;-82
2022/05/22 03:51:31;;;;;;;12.50;6.73;;;14.80;48.10;;;;;;5063611;28;20231;-80
2022/05/22 03:54:03;;;;;;;9.80;6.30;;;14.70;49.80;;;;;;5061905;28;20165;-76
2022/05/22 03:56:32;;;;;;;10.17;5.87;;;14.80;49.70;;;;;;5055828;28;20162;-75
2022/05/22 03:58:58;;;;;;;9.97;5.80;;;14.80;50.20;;;;;;5055985;28;20187;-78
2022/05/22 04:01:24;;;;;;;13.53;6.03;;;14.90;50.40;;;;;;5054350;28;20295;-77
2022/05/22 04:03:53;;;;;;;10.30;6.00;;;14.90;49.40;;;;;;5053449;28;20239;-78
2022/05/22 04:06:19;;;;;;;13.67;6.43;;;14.90;48.70;;;;;;5054964;28;20306;-79
2022/05/22 04:08:48;;;;;;;13.97;5.97;;;14.80;49.60;;;;;;5054026;28;20235;-78
2022/05/22 04:11:17;;;;;;;11.13;6.17;;;15.10;49.30;;;;;;5056427;28;20199;-77
2022/05/22 04:13:44;;;;;;;11.67;5.83;;;15.30;45.00;;;;;;5056539;28;20236;-79
2022/05/22 04:16:10;;;;;;;12.40;6.03;;;15.50;42.10;;;;;;5056361;28;20643;-77
2022/05/22 04:18:36;;;;;;;12.07;5.83;;;15.60;39.70;;;;;;5058353;28;20173;-77
2022/05/22 04:21:02;;;;;;;10.60;5.90;;;15.70;36.80;;;;;;5058673;28;20165;-77
2022/05/22 04:26:12;;;;;;;11.40;5.30;;;16.00;32.50;;;;;;5061355;28;20246;-80
2022/05/22 04:28:38;;;;;;;13.30;6.00;;;16.10;30.50;;;;;;5061848;28;20165;-76
2022/05/22 04:31:05;;;;;;;10.67;5.63;;;16.20;28.90;;;;;;5062560;28;20192;-76
2022/05/22 04:33:31;;;;;;;11.07;5.70;;;16.20;28.70;;;;;;5061545;28;20573;-78
2022/05/22 04:35:58;;;;;;;13.07;5.33;;;16.40;25.10;;;;;;5068238;28;20177;-76
2022/05/22 04:38:24;;;;;;;13.80;5.67;;;16.50;23.10;;;;;;5068889;28;20176;-76
2022/05/22 04:40:59;;;;;;;10.47;5.40;;;16.60;21.10;;;;;;5074314;28;20164;-77
2022/05/22 04:43:26;;;;;;;9.53;5.50;;;16.70;22.20;;;;;;5075699;28;20161;-76
2022/05/22 04:45:52;;;;;;;12.97;6.23;;;16.70;22.60;;;;;;5069079;28;20169;-76
2022/05/22 04:48:19;;;;;;;14.67;6.77;;;16.80;19.00;;;;;;5072119;28;20191;-75
2022/05/22 04:50:48;;;;;;;13.80;6.97;;;16.70;18.10;;;;;;5068219;28;20169;-77
2022/05/22 04:53:16;;;;;;;13.33;6.67;;;16.60;16.90;;;;;;5070067;28;20224;-76
2022/05/22 04:55:41;;;;;;;13.67;6.63;;;16.60;17.70;;;;;;5067437;28;20242;-76
2022/05/22 04:58:11;;;;;;;11.23;6.50;;;16.60;16.10;;;;;;5065033;28;20633;-77
2022/05/22 05:00:40;;;;;;;11.93;6.27;;;16.60;15.70;;;;;;5056906;28;20169;-76
2022/05/22 05:03:05;;;;;;;13.63;6.63;;;16.80;16.10;;;;;;5057288;28;20162;-76
2022/05/22 05:05:32;;;;;;;14.33;7.00;;;16.70;15.00;;;;;;5056538;28;20222;-78
2022/05/22 05:08:01;;;;;;;14.30;6.70;;;16.50;17.60;;;;;;5056978;28;20197;-76
2022/05/22 05:10:26;;;;;;;14.33;6.57;;;16.60;18.80;;;;;;5061561;28;20222;-77
2022/05/22 05:13:02;;;;;;;12.80;7.00;;;16.60;17.80;;;;;;5062503;28;20236;-77
2022/05/22 05:15:29;;;;;;;12.33;6.67;;;16.80;16.70;;;;;;5057409;28;20606;-75
2022/05/22 05:17:56;;;;;;;12.80;6.80;;;16.90;11.90;;;;;;5056838;28;20149;-76
2022/05/22 05:20:25;;;;;;;13.47;6.70;;;17.00;11.10;;;;;;5056435;28;20197;-84
2022/05/22 05:23:04;;;;;;;15.03;6.97;;;17.10;9.10;;;;;;5058301;28;20164;-81
2022/05/22 05:25:30;;;;;;;16.17;7.03;;;17.10;8.70;;;;;;5057373;28;20208;-83
2022/05/22 05:27:56;;;;;;;11.77;6.67;;;17.30;7.50;;;;;;5059365;28;20631;-77
2022/05/22 05:30:22;;;;;;;14.07;6.60;;;17.40;1.90;;;;;;5057058;28;20198;-76
2022/05/22 05:32:53;;;;;;;15.10;7.50;;;17.50;1.00;;;;;;5055702;28;20176;-75
2022/05/22 05:35:18;;;;;;;12.00;6.83;;;17.50;1.00;;;;;;5061487;28;20228;-75
2022/05/22 05:37:44;;;;;;;10.97;6.03;;;17.60;1.00;;;;;;5072053;28;20646;-76
2022/05/22 05:40:10;;;;;;;12.60;7.13;;;17.70;1.00;;;;;;5062829;28;20238;-77
2022/05/22 05:42:41;;;;;;;15.03;7.07;;;17.60;1.00;;;;;;5059982;28;20180;-76
2022/05/22 05:45:09;;;;;;;13.13;6.33;;;17.70;1.00;;;;;;5056753;28;20358;-78
2022/05/22 05:47:43;;;;;;;14.83;6.83;;;17.80;1.00;;;;;;5056145;28;20187;-77
2022/05/22 05:50:09;;;;;;;13.83;6.50;;;18.00;1.00;;;;;;5055614;28;20271;-77
2022/05/22 05:52:35;;;;;;;12.40;4.70;;;18.00;1.00;;;;;;5058914;28;20179;-85
2022/05/22 05:55:01;;;;;;;12.60;4.60;;;18.10;1.00;;;;;;5056543;28;20165;-80
2022/05/22 05:57:27;;;;;;;7.77;4.00;;;17.90;1.00;;;;;;5059006;28;20632;-76
2022/05/22 05:59:54;;;;;;;8.00;3.40;;;17.90;1.00;;;;;;5064157;28;20168;-77
2022/05/22 06:02:20;;;;;;;11.20;4.20;;;18.10;1.00;;;;;;5076469;28;20266;-77
2022/05/22 06:04:46;;;;;;;11.23;3.50;;;18.20;1.00;;;;;;5068232;28;20217;-79
2022/05/22 06:07:11;;;;;;;7.80;2.73;;;18.40;1.00;;;;;;5055721;28;20612;-77
2022/05/22 06:09:40;;;;;;;8.30;3.07;;;18.50;1.00;;;;;;5055702;28;20201;-78
2022/05/22 06:12:12;;;;;;;7.57;2.70;;;18.60;1.00;;;;;;5055606;28;20180;-77
2022/05/22 06:14:44;;;;;;;7.17;2.77;;;18.30;1.00;;;;;;5056654;28;20162;-78
2022/05/22 06:17:10;;;;;;;9.37;3.13;;;18.10;1.00;;;;;;5057793;28;20594;-76
2022/05/22 06:19:55;;;;;;;6.47;2.80;;;18.20;1.00;;;;;;5058659;28;20173;-78
2022/05/22 06:22:22;;;;;;;5.83;2.73;;;18.20;1.00;;;;;;5056528;28;20539;-81
2022/05/22 06:24:49;;;;;;;11.03;2.97;;;18.00;1.00;;;;;;5057093;28;20279;-77
2022/05/22 06:27:15;;;;;;;8.73;3.00;;;18.00;1.00;;;;;;5059467;28;20191;-76
2022/05/22 06:29:42;;;;;;;7.93;3.17;;;18.00;1.00;;;;;;5059594;28;20649;-79
2022/05/22 06:32:11;;;;;;;8.37;2.97;;;17.90;1.00;;;;;;5059692;28;20632;-78
2022/05/22 06:34:41;;;;;;;8.47;3.30;;;17.90;1.00;;;;;;5066596;28;20729;-76
2022/05/22 06:37:10;;;;;;;8.23;3.37;;;18.00;1.00;;;;;;5065393;28;20173;-81
2022/05/22 06:39:51;;;;;;;7.47;2.63;;;18.20;1.00;;;;;;5042519;28;20551;-76
2022/05/22 06:42:23;;;;;;;8.80;3.20;;;18.10;1.00;;;;;;5055985;28;20177;-78
2022/05/22 06:44:58;;;;;;;9.33;3.70;;;18.10;1.00;;;;;;5055758;28;20243;-77
2022/05/22 06:47:28;;;;;;;10.40;3.53;;;18.20;1.00;;;;;;5053669;28;20174;-77
2022/05/22 06:49:58;;;;;;;8.87;3.17;;;18.60;1.00;;;;;;5057444;28;20171;-78
2022/05/22 06:52:40;;;;;;;10.50;3.40;;;18.60;1.00;;;;;;5059107;28;20199;-81
2022/05/22 06:55:24;;;;;;;9.20;3.93;;;18.60;1.00;;;;;;5055463;28;20180;-80
2022/05/22 06:57:58;;;;;;;8.30;3.67;;;18.70;1.00;;;;;;5055312;28;20166;-81
2022/05/22 07:00:30;;;;;;;8.77;3.43;;;19.00;1.00;;;;;;5056007;28;20157;-77
2022/05/22 07:02:56;;;;;;;8.70;3.47;;;19.10;1.00;;;;;;5053529;28;20183;-77
2022/05/22 07:05:21;;;;;;;11.63;6.00;;;19.40;1.00;;;;;;5054029;28;20271;-77
2022/05/22 07:07:48;;;;;;;7.87;3.70;;;19.40;1.00;;;;;;5054449;28;20540;-78
2022/05/22 07:10:14;;;;;;;7.57;4.00;;;19.40;1.00;;;;;;5054107;28;20246;-79
2022/05/22 07:12:40;;;;;;;12.03;3.87;;;19.30;1.00;;;;;;5056724;28;20231;-83
2022/05/22 07:15:07;;;;;;;9.00;4.13;;;19.10;1.00;;;;;;5055352;28;20255;-78
2022/05/22 07:17:33;;;;;;;9.50;4.40;;;18.90;1.00;;;;;;5056457;28;20170;-77
2022/05/22 07:19:59;;;;;;;9.63;4.10;;;18.90;1.00;;;;;;5054622;28;20606;-80
2022/05/22 07:22:26;;;;;;;11.13;3.90;;;19.00;1.00;;;;;;5054619;28;20172;-82
2022/05/22 07:24:52;;;;;;;9.43;3.67;;;18.90;1.00;;;;;;5053968;28;20196;-77
2022/05/22 07:27:19;;;;;;;10.53;4.17;;;18.70;1.00;;;;;;5053894;28;20173;-80
2022/05/22 07:29:48;;;;;;;9.80;4.23;;;18.80;1.00;;;;;;5059345;28;20193;-78
2022/05/22 07:32:14;;;;;;;8.43;4.20;;;19.10;1.00;;;;;;5066566;28;20242;-79
2022/05/22 07:34:42;;;;;;;11.57;4.53;;;19.30;1.00;;;;;;5059232;28;20214;-78
2022/05/22 07:37:10;;;;;;;7.50;4.30;;;19.10;1.00;;;;;;5054525;28;20308;-80
2022/05/22 07:39:37;;;;;;;11.77;4.67;;;18.90;1.00;;;;;;5052715;28;20207;-80
2022/05/22 07:42:04;;;;;;;12.27;5.20;;;19.00;1.00;;;;;;5055412;28;20180;-79
2022/05/22 07:44:30;;;;;;;9.20;4.87;;;19.00;1.00;;;;;;5054511;28;20205;-85
2022/05/22 07:46:56;;;;;;;10.13;4.83;;;18.90;1.00;;;;;;5054670;28;20180;-82
2022/05/22 07:52:09;;;;;;;10.20;4.70;;;18.90;1.00;;;;;;5053481;28;20176;-81
2022/05/22 07:54:37;;;;;;;11.33;4.43;;;18.90;1.00;;;;;;5053864;28;20166;-85
2022/05/22 07:57:08;;;;;;;11.90;4.67;;;18.90;1.00;;;;;;5053309;28;20154;-86
2022/05/22 07:59:36;;;;;;;12.47;4.70;;;18.90;1.00;;;;;;5052990;28;20174;-78
2022/05/22 08:02:03;;;;;;;11.77;4.70;;;19.00;1.00;;;;;;5060529;28;20229;-78
2022/05/22 08:04:30;;;;;;;9.53;4.33;;;19.20;1.00;;;;;;5059344;28;20241;-80
2022/05/22 08:06:57;;;;;;;10.20;4.20;;;19.40;1.00;;;;;;5059065;28;20248;-77
2022/05/22 08:09:24;;;;;;;10.77;4.30;;;19.30;1.00;;;;;;5060600;28;20179;-76
2022/05/22 08:11:50;;;;;;;8.17;3.97;;;19.50;1.00;;;;;;5055943;28;20167;-77
2022/05/22 08:14:16;;;;;;;9.70;4.30;;;19.90;1.00;;;;;;5056703;28;20665;-80
2022/05/22 08:16:44;;;;;;;8.27;4.30;;;20.20;1.00;;;;;;5054447;28;20163;-79
2022/05/22 08:19:18;;;;;;;8.40;3.73;;;20.10;1.00;;;;;;5053891;28;20241;-82
2022/05/22 08:21:44;;;;;;;10.67;4.57;;;20.10;1.00;;;;;;5053560;28;20189;-80
2022/05/22 08:24:09;;;;;;;8.63;4.30;;;20.00;1.00;;;;;;5053809;28;20705;-83
2022/05/22 08:26:37;;;;;;;11.03;4.03;;;19.80;1.00;;;;;;5054969;28;20173;-82
2022/05/22 08:29:03;;;;;;;7.60;3.70;;;19.80;1.00;;;;;;5054300;28;20169;-81
2022/05/22 08:31:29;;;;;;;8.23;3.67;;;20.10;1.00;;;;;;5055027;28;20252;-84
2022/05/22 08:33:55;;;;;;;7.23;2.80;;;20.40;1.00;;;;;;5057215;28;20172;-81
2022/05/22 08:36:20;;;;;;;7.03;3.30;;;20.20;1.00;;;;;;5053237;28;20237;-82
2022/05/22 08:38:47;;;;;;;9.43;3.40;;;20.10;1.00;;;;;;5053552;28;20174;-83
2022/05/22 08:41:31;;;;;;;8.03;3.57;;;19.90;1.00;;;;;;5059286;28;20223;-83
2022/05/22 08:44:10;;;;;;;9.97;3.50;;;19.90;1.00;;;;;;5048811;28;20211;-84
2022/05/22 08:46:50;;;;;;;8.63;3.60;;;19.90;1.00;;;;;;5067542;28;20186;-84
2022/05/22 08:49:36;;;;;;;6.63;3.03;;;20.00;1.00;;;;;;5060249;28;20200;-83
2022/05/22 08:52:26;;;;;;;7.00;3.17;;;20.10;1.00;;;;;;5060496;28;20201;-83
2022/05/22 08:55:17;;;;;;;9.13;3.27;;;20.10;1.00;;;;;;5063922;28;20182;-84
2022/05/22 09:00:41;;;;;;;9.03;3.80;;;20.30;1.00;;;;;;5066693;28;20210;-84
2022/05/22 09:03:15;;;;;;;11.50;3.90;;;20.60;1.00;;;;;;5062725;28;20167;-85
2022/05/22 09:05:41;;;;;;;10.77;3.27;;;21.00;1.00;;;;;;5056965;28;20223;-83
2022/05/22 09:08:19;;;;;;;7.17;3.17;;;21.20;99.90;;;;;;5073979;28;20235;-81
2022/05/22 09:11:19;;;;;;;9.40;2.70;;;21.50;99.90;;;;;;5073295;28;20169;-83
2022/05/22 09:13:58;;;;;;;9.80;2.93;;;21.70;99.90;;;;;;5058060;28;20245;-83
2022/05/22 09:16:33;;;;;;;5.73;3.07;;;21.60;99.90;;;;;;5059894;28;20172;-84
2022/05/22 09:19:23;;;;;;;9.37;2.57;;;21.60;99.90;;;;;;5058630;28;20161;-82
2022/05/22 09:22:07;;;;;;;7.70;2.87;;;21.80;1.00;;;;;;5057513;28;20164;-83
2022/05/22 09:24:54;;;;;;;7.63;2.80;;;21.70;1.00;;;;;;5058828;28;20783;-80
2022/05/22 09:27:32;;;;;;;6.73;2.97;;;21.80;1.00;;;;;;5059648;28;20162;-82
2022/05/22 09:30:11;;;;;;;6.97;2.30;;;21.90;99.90;;;;;;5059077;28;20188;-81
2022/05/22 09:33:04;;;;;;;6.97;2.67;;;21.80;1.00;;;;;;5076559;28;20168;-85
2022/05/22 09:36:09;;;;;;;6.73;2.60;;;21.80;1.00;;;;;;5075946;28;20180;-85
2022/05/22 09:38:44;;;;;;;6.53;2.47;;;21.60;99.90;;;;;;5065385;28;20186;-87
2022/05/22 09:41:40;;;;;;;7.30;2.70;;;21.60;99.90;;;;;;5063900;28;20264;-87
2022/05/22 09:44:36;;;;;;;3.90;2.20;;;21.30;1.00;;;;;;5061363;28;20244;-85
2022/05/22 09:47:01;;;;;;;6.13;2.10;;;21.10;99.90;;;;;;5023192;28;20207;-87
2022/05/22 09:49:48;;;;;;;4.37;2.00;;;21.30;99.90;;;;;;5059815;28;20167;-82
2022/05/22 09:52:34;;;;;;;4.73;2.30;;;21.60;1.00;;;;;;5058613;28;20196;-87
2022/05/22 09:55:28;;;;;;;7.53;2.43;;;21.70;99.90;;;;;;5066460;28;20180;-81
2022/05/22 09:58:22;;;;;;;7.97;2.57;;;21.90;99.90;;;;;;5061842;28;20192;-83
2022/05/22 10:01:01;;;;;;;6.10;2.17;;;22.00;99.90;;;;;;5060164;28;20164;-83
2022/05/22 10:03:58;;;;;;;7.13;2.40;;;22.00;67.40;;;;;;5059412;28;20168;-83
2022/05/22 10:06:45;;;;;;;5.77;2.17;;;21.80;99.90;;;;;;5054346;28;20197;-85
2022/05/22 10:09:58;;;;;;;7.90;2.00;;;21.80;1.00;;;;;;5056919;28;20266;-84
2022/05/22 10:12:48;;;;;;;5.00;2.13;;;22.00;1.00;;;;;;5062307;28;20168;-83
2022/05/22 10:15:41;;;;;;;6.37;2.17;;;21.90;1.00;;;;;;5059381;28;20659;-84
2022/05/22 10:18:20;;;;;;;5.20;2.27;;;22.10;99.90;;;;;;5060366;28;20177;-83
2022/05/22 10:21:04;;;;;;;6.83;2.33;;;22.10;99.90;;;;;;5056714;28;20260;-86
2022/05/22 10:24:08;;;;;;;6.90;2.30;;;22.20;1.00;;;;;;5056291;28;20173;-85
2022/05/22 10:26:56;;;;;;;5.97;2.20;;;22.20;99.90;;;;;;5058147;28;20188;-89
2022/05/22 10:29:47;;;;;;;7.63;2.37;;;22.20;1.00;;;;;;5058930;28;20195;-87
2022/05/22 10:32:37;;;;;;;4.63;2.23;;;22.20;54.00;;;;;;5061209;28;20181;-87
2022/05/22 10:35:09;;;;;;;4.90;2.20;;;22.10;99.90;;;;;;5056094;28;20227;-85
2022/05/22 10:37:44;;;;;;;4.67;2.40;;;22.20;1.00;;;;;;5056547;28;20189;-86
2022/05/22 10:40:16;;;;;;;4.63;2.03;;;22.20;1.00;;;;;;5056737;28;20654;-78
2022/05/22 10:42:46;;;;;;;7.80;2.53;;;22.40;1.00;;;;;;5055747;28;20206;-88
2022/05/22 10:45:25;;;;;;;6.00;2.50;;;22.50;99.90;;;;;;5053632;28;20197;-84
2022/05/22 10:47:53;;;;;;;4.80;2.60;;;22.70;99.90;;;;;;5055016;28;20657;-84
2022/05/22 10:50:25;;;;;;;6.20;2.70;;;22.60;1.00;;;;;;5057093;28;20196;-85
2022/05/22 10:52:54;;;;;;;6.80;2.87;;;22.80;1.00;;;;;;5057107;28;20171;-83
2022/05/22 10:55:43;;;;;;;7.20;2.80;;;22.90;99.90;;;;;;5054446;28;20286;-83
2022/05/22 10:58:30;;;;;;;6.30;2.93;;;22.90;1.00;;;;;;5053567;28;20216;-81
2022/05/22 11:01:16;;;;;;;4.63;2.20;;;23.10;1.00;;;;;;5055754;28;20184;-85
2022/05/22 11:03:42;;;;;;;7.60;3.23;;;23.10;1.00;;;;;;5051974;28;20181;-83
2022/05/22 11:06:22;;;;;;;6.40;2.77;;;22.50;1.00;;;;;;5058689;28;20242;-83
2022/05/22 11:08:57;;;;;;;5.43;2.77;;;22.30;1.00;;;;;;5063204;28;20242;-84
2022/05/22 11:11:30;;;;;;;5.17;3.03;;;22.50;99.90;;;;;;5065429;28;20629;-79
2022/05/22 11:14:20;;;;;;;6.23;2.90;;;22.30;49.90;;;;;;5056068;28;20171;-80
2022/05/22 11:16:47;;;;;;;8.07;2.90;;;22.20;1.00;;;;;;5054198;28;20175;-85
2022/05/22 11:19:21;;;;;;;4.70;2.80;;;22.20;99.90;;;;;;5054097;28;20157;-84
2022/05/22 11:22:11;;;;;;;5.43;2.67;;;22.30;99.90;;;;;;5050034;28;20189;-84
2022/05/22 11:24:55;;;;;;;7.70;3.07;;;22.30;99.90;;;;;;5052700;28;20298;-85
2022/05/22 11:27:38;;;;;;;6.53;3.07;;;22.30;1.00;;;;;;5051825;28;20169;-84
2022/05/22 11:30:35;;;;;;;7.60;3.37;;;22.60;99.90;;;;;;5054099;28;20214;-85
2022/05/22 11:33:26;;;;;;;7.80;3.30;;;23.10;99.90;;;;;;5051157;28;20168;-84
2022/05/22 11:36:16;;;;;;;6.43;3.20;;;23.40;99.90;;;;;;5051851;28;20221;-84
2022/05/22 11:38:54;;;;;;;6.23;2.93;;;23.10;1.00;;;;;;5051604;28;20203;-82
2022/05/22 11:41:38;;;;;;;5.17;3.27;;;22.90;99.90;;;;;;5050111;28;20190;-82
2022/05/22 11:44:20;;;;;;;7.83;4.97;;;22.80;1.00;;;;;;5053999;28;20215;-82
2022/05/22 11:47:05;;;;;;;6.43;2.97;;;22.60;92.70;;;;;;5054611;28;20170;-85
2022/05/22 11:50:07;;;;;;;6.57;3.00;;;22.40;1.00;;;;;;5051898;28;20189;-81
2022/05/22 11:52:55;;;;;;;9.70;3.47;;;22.60;99.90;;;;;;5053581;28;20299;-84
2022/05/22 11:56:04;;;;;;;4.73;2.53;;;22.60;99.90;;;;;;5054276;28;20203;-86
2022/05/22 11:58:42;;;;;;;6.07;3.00;;;22.60;1.00;;;;;;5055769;28;20176;-79
2022/05/22 12:01:19;;;;;;;6.50;3.40;;;22.80;1.00;;;;;;5061816;28;21518;-80
2022/05/22 12:03:57;;;;;;;6.23;3.03;;;23.00;99.90;;;;;;5074022;28;20178;-83
2022/05/22 12:06:42;;;;;;;6.50;3.40;;;23.20;99.90;;;;;;5071341;28;20198;-80
2022/05/22 12:09:34;;;;;;;6.10;3.43;;;23.60;18.10;;;;;;5068712;28;20187;-80
2022/05/22 12:12:13;;;;;;;6.87;3.20;;;24.00;1.00;;;;;;5067254;28;20186;-78
2022/05/22 12:15:06;;;;;;;6.40;3.03;;;24.00;1.00;;;;;;5067585;28;20238;-80
2022/05/22 12:17:53;;;;;;;6.60;3.07;;;24.10;1.00;;;;;;5071533;28;20175;-81
2022/05/22 12:20:31;;;;;;;6.33;3.57;;;24.20;99.90;;;;;;5069613;28;20167;-81
2022/05/22 12:23:22;;;;;;;6.30;3.07;;;24.40;29.40;;;;;;5074482;28;20160;-80
2022/05/22 12:25:51;;;;;;;5.03;3.03;;;24.50;1.00;;;;;;5030246;28;20318;-81
2022/05/22 12:28:43;;;;;;;8.83;3.50;;;24.50;1.00;;;;;;5048672;28;20189;-81
2022/05/22 12:31:42;;;;;;;6.03;3.10;;;24.60;99.90;;;;;;5051432;28;20180;-82
2022/05/22 12:34:15;;;;;;;5.37;3.13;;;24.70;99.90;;;;;;5054069;28;20177;-82
2022/05/22 12:36:46;;;;;;;6.67;2.83;;;24.70;1.00;;;;;;5050492;28;20168;-82
2022/05/22 12:39:14;;;;;;;5.93;2.80;;;24.50;1.00;;;;;;5054648;28;20177;-80
2022/05/22 12:42:24;;;;;;;8.77;3.00;;;24.50;1.00;;;;;;5073286;28;20165;-79
2022/05/22 12:44:50;;;;;;;6.53;2.70;;;24.80;99.90;;;;;;5056644;28;20196;-82
2022/05/22 12:47:17;;;;;;;4.53;2.60;;;25.00;1.00;;;;;;5057185;28;20274;-79
2022/05/22 12:49:58;;;;;;;4.53;2.43;;;25.30;99.90;;;;;;5056760;28;20176;-82
2022/05/22 12:52:28;;;;;;;6.57;3.00;;;25.60;99.90;;;;;;5056024;28;20165;-81
2022/05/22 12:55:19;;;;;;;5.80;3.10;;;25.60;1.00;;;;;;5054566;28;20169;-80
2022/05/22 12:57:56;;;;;;;5.87;2.53;;;25.60;1.00;;;;;;5054793;28;20165;-79
2022/05/22 13:00:42;;;;;;;5.90;2.50;;;25.70;1.00;;;;;;5052695;28;20161;-84
2022/05/22 13:03:26;;;;;;;5.30;2.20;;;25.50;1.00;;;;;;5057446;28;20201;-83
2022/05/22 13:06:01;;;;;;;5.07;2.97;;;25.40;1.00;;;;;;5071017;28;20212;-82
2022/05/22 13:08:33;;;;;;;5.13;2.70;;;25.40;1.00;;;;;;5073243;28;20228;-80
2022/05/22 13:11:06;;;;;;;5.47;2.27;;;24.90;1.00;;;;;;5058053;28;20264;-83
2022/05/22 13:13:48;;;;;;;5.97;2.37;;;24.70;1.00;;;;;;5057860;28;20229;-80
2022/05/22 13:16:48;;;;;;;8.20;2.47;;;24.70;1.00;;;;;;5056481;28;20267;-79
2022/05/22 13:19:25;;;;;;;3.70;2.10;;;24.90;99.90;;;;;;5054180;28;20173;-82
2022/05/22 13:21:52;;;;;;;4.50;1.80;;;25.10;99.90;;;;;;5052345;28;20539;-84
2022/05/22 13:24:18;;;;;;;5.43;2.20;;;25.30;99.90;;;;;;5054384;28;20201;-87
2022/05/22 13:27:01;;;;;;;4.83;2.30;;;25.50;99.90;;;;;;5057294;28;20184;-81